createdAt,value
2024-05-09T00:00:45.537Z,99534.34
2024-05-09T00:03:13.789Z,99522.47
2024-05-09T00:05:42.240Z,99537.41
2024-05-09T00:08:10.805Z,99540.66
2024-05-09T00:10:40.428Z,99534.78
2024-05-09T00:13:10.254Z,99537.16
2024-05-09T00:15:38.900Z,99536.44
2024-05-09T00:18:09.531Z,99544.97
2024-05-09T00:20:40.354Z,99546.75
2024-05-09T00:23:13.986Z,99544.09
2024-05-09T00:25:43.412Z,99546.75
2024-05-09T00:28:12.619Z,99541.38
2024-05-09T00:30:40.862Z,99543.97
2024-05-09T00:33:12.023Z,99555.59
2024-05-09T00:35:40.147Z,99551.44
2024-05-09T00:38:08.141Z,99561.31
2024-05-09T00:40:40.572Z,99549.66
2024-05-09T00:43:11.377Z,99566.34
2024-05-09T00:45:39.398Z,99569.81
2024-05-09T00:48:09.562Z,99564.91
2024-05-09T00:50:42.732Z,99566.25
2024-05-09T00:53:13.052Z,99565.38
2024-05-09T00:55:41.813Z,99572.09
2024-05-09T00:58:12.745Z,99561.56
2024-05-09T01:00:41.680Z,99575.31
2024-05-09T01:03:12.099Z,99577.28
2024-05-09T01:05:44.321Z,99579.09
2024-05-09T01:08:13.025Z,99586.66
2024-05-09T01:10:43.947Z,99577.81
2024-05-09T01:13:13.162Z,99591.28
2024-05-09T01:15:40.692Z,99588.19
2024-05-09T01:18:12.219Z,99584.41
2024-05-09T01:20:45.221Z,99585.38
2024-05-09T01:23:16.765Z,99594.09
2024-05-09T01:25:46.669Z,99601.09
2024-05-09T01:28:16.416Z,99608.06
2024-05-09T01:30:44.436Z,99608.22
2024-05-09T01:33:12.835Z,99613.41
2024-05-09T01:35:42.531Z,99608.53
2024-05-09T01:38:17.242Z,99608.69
2024-05-09T01:40:49.142Z,99615.50
2024-05-09T01:43:16.647Z,99608.94
2024-05-09T01:45:44.250Z,99602.53
2024-05-09T01:48:12.126Z,99604.34
2024-05-09T01:50:42.336Z,99608.69
2024-05-09T01:53:12.520Z,99622.09
2024-05-09T01:55:40.371Z,99620.44
2024-05-09T01:58:10.731Z,99616.34
2024-05-09T02:00:42.353Z,99611.22
2024-05-09T02:03:15.652Z,99614.72
2024-05-09T02:05:47.147Z,99628.00
2024-05-09T02:08:17.460Z,99630.59
2024-05-09T02:10:47.298Z,99630.50
2024-05-09T02:13:19.764Z,99631.00
2024-05-09T02:15:47.747Z,99628.50
2024-05-09T02:18:15.717Z,99632.56
2024-05-09T02:20:44.049Z,99634.16
2024-05-09T02:23:12.651Z,99640.66
2024-05-09T02:25:41.091Z,99658.81
2024-05-09T02:28:08.700Z,99647.16
2024-05-09T02:30:41.428Z,99649.91
2024-05-09T02:33:12.475Z,99657.53
2024-05-09T02:35:43.790Z,99647.66
2024-05-09T02:38:12.827Z,99656.88
2024-05-09T02:40:41.052Z,99660.22
2024-05-09T02:43:10.651Z,99653.47
2024-05-09T02:45:42.417Z,99664.66
2024-05-09T02:48:11.699Z,99658.44
2024-05-09T02:50:44.430Z,99668.97
2024-05-09T02:53:12.744Z,99662.88
2024-05-09T02:55:41.068Z,99660.13
2024-05-09T02:58:08.726Z,99662.66
2024-05-09T03:00:40.288Z,99661.50
2024-05-09T03:03:14.791Z,99668.16
2024-05-09T03:05:43.970Z,99666.44
2024-05-09T03:08:11.978Z,99669.31
2024-05-09T03:10:39.970Z,99672.63
2024-05-09T03:13:08.252Z,99672.63
2024-05-09T03:15:36.556Z,99675.72
2024-05-09T03:18:06.543Z,99670.50
2024-05-09T03:20:37.334Z,99680.38
2024-05-09T03:23:06.560Z,99660.44
2024-05-09T03:25:34.620Z,99677.72
2024-05-09T03:28:02.570Z,99678.88
2024-05-09T03:30:39.343Z,99684.47
2024-05-09T03:33:10.994Z,99682.50
2024-05-09T03:35:41.493Z,99680.50
2024-05-09T03:38:09.345Z,99680.38
2024-05-09T03:40:45.222Z,99685.78
2024-05-09T03:43:13.263Z,99681.28
2024-05-09T03:45:40.853Z,99687.78
2024-05-09T03:48:09.110Z,99691.13
2024-05-09T03:50:37.444Z,99691.00
2024-05-09T03:53:11.526Z,99692.41
2024-05-09T03:55:39.354Z,99693.84
2024-05-09T03:58:08.392Z,99700.19
2024-05-09T04:00:39.281Z,99689.59
2024-05-09T04:03:11.205Z,99700.66
2024-05-09T04:05:41.904Z,99703.91
2024-05-09T04:08:13.958Z,99697.97
2024-05-09T04:10:41.755Z,99682.50
2024-05-09T04:13:10.393Z,99687.63
2024-05-09T04:15:38.116Z,99694.75
2024-05-09T04:18:06.068Z,99691.25
2024-05-09T04:20:38.695Z,99681.50
2024-05-09T04:23:10.933Z,99696.22
2024-05-09T04:25:42.314Z,99714.28
2024-05-09T04:28:10.236Z,99691.38
2024-05-09T04:30:40.444Z,99703.00
2024-05-09T04:33:14.070Z,99700.06
2024-05-09T04:35:42.965Z,99700.97
2024-05-09T04:38:11.378Z,99701.59
2024-05-09T04:40:41.674Z,99707.56
2024-05-09T04:43:15.957Z,99706.72
2024-05-09T04:45:44.244Z,99699.94
2024-05-09T04:48:12.108Z,99703.53
2024-05-09T04:50:40.102Z,99701.41
2024-05-09T04:53:10.394Z,99697.94
2024-05-09T04:55:45.153Z,99703.25
2024-05-09T04:58:12.957Z,99697.28
2024-05-09T05:00:41.653Z,99684.00
2024-05-09T05:03:13.452Z,99702.13
2024-05-09T05:05:45.595Z,99685.38
2024-05-09T05:08:15.306Z,99701.94
2024-05-09T05:10:46.871Z,99703.31
2024-05-09T05:13:23.240Z,99710.09
2024-05-09T05:15:53.750Z,99694.47
2024-05-09T05:18:22.919Z,99702.53
2024-05-09T05:20:50.806Z,99695.81
2024-05-09T05:23:20.254Z,99701.03
2024-05-09T05:25:53.490Z,99688.00
2024-05-09T05:28:22.120Z,99704.63
2024-05-09T05:30:52.221Z,99667.78
2024-05-09T05:33:20.368Z,99692.41
2024-05-09T05:35:48.396Z,99683.31
2024-05-09T05:38:16.456Z,99686.91
2024-05-09T05:40:44.339Z,99691.31
2024-05-09T05:43:19.067Z,99691.16
2024-05-09T05:45:46.956Z,99692.03
2024-05-09T05:48:17.156Z,99708.41
2024-05-09T05:50:45.918Z,99694.22
2024-05-09T05:53:13.975Z,99703.56
2024-05-09T05:55:41.992Z,99695.09
2024-05-09T05:58:10.824Z,99697.97
2024-05-09T06:00:42.570Z,99702.47
2024-05-09T06:03:12.658Z,99693.50
2024-05-09T06:05:43.950Z,99714.13
2024-05-09T06:08:12.696Z,99716.78
2024-05-09T06:10:41.726Z,99710.91
2024-05-09T06:13:13.490Z,99715.56
2024-05-09T06:15:44.529Z,99714.13
2024-05-09T06:18:12.989Z,99703.72
2024-05-09T06:20:43.349Z,99698.78
2024-05-09T06:23:13.123Z,99704.19
2024-05-09T06:25:42.605Z,99705.22
2024-05-09T06:28:10.971Z,99694.06
2024-05-09T06:30:42.482Z,99684.22
2024-05-09T06:33:16.030Z,99687.72
2024-05-09T06:35:44.821Z,99689.28
2024-05-09T06:38:12.896Z,99686.47
2024-05-09T06:40:43.064Z,99691.50
2024-05-09T06:43:12.296Z,99710.28
2024-05-09T06:45:40.256Z,99705.75
2024-05-09T06:48:09.853Z,99702.97
2024-05-09T06:50:41.527Z,99698.75
2024-05-09T06:53:09.759Z,99702.94
2024-05-09T06:55:39.555Z,99691.59
2024-05-09T06:58:09.417Z,99697.47
2024-05-09T07:00:39.690Z,99695.28
2024-05-09T07:03:09.952Z,99700.25
2024-05-09T07:05:43.576Z,99688.72
2024-05-09T07:08:11.775Z,99694.25
2024-05-09T07:10:39.602Z,99680.34
2024-05-09T07:13:09.462Z,99675.16
2024-05-09T07:15:37.394Z,99676.97
2024-05-09T07:18:10.317Z,99676.06
2024-05-09T07:20:38.500Z,99663.78
2024-05-09T07:23:09.870Z,99669.69
2024-05-09T07:25:37.821Z,99663.38
2024-05-09T07:28:06.204Z,99668.75
2024-05-09T07:30:36.017Z,99665.75
2024-05-09T07:33:04.281Z,99652.69
2024-05-09T07:35:35.088Z,99650.63
2024-05-09T07:38:02.745Z,99671.81
2024-05-09T07:40:36.401Z,99673.44
2024-05-09T07:43:05.170Z,99660.47
2024-05-09T07:52:23.599Z,99672.00
2024-05-09T07:53:39.578Z,99666.91
2024-05-09T07:56:15.555Z,99666.03
2024-05-09T07:58:43.980Z,99677.78
2024-05-09T08:01:11.541Z,99672.41
2024-05-09T08:03:39.378Z,99674.75
2024-05-09T08:06:07.150Z,99673.09
2024-05-09T08:08:34.763Z,99658.91
2024-05-09T08:11:03.114Z,99658.53
2024-05-09T08:13:36.392Z,99667.88
2024-05-09T08:16:04.426Z,99661.84
2024-05-09T08:18:32.148Z,99669.00
2024-05-09T08:21:00.008Z,99621.22
2024-05-09T08:23:28.893Z,99655.38
2024-05-09T08:25:56.530Z,99653.16
2024-05-09T08:28:24.362Z,99641.31
2024-05-09T08:30:54.912Z,99648.97
2024-05-09T08:33:22.490Z,99644.13
2024-05-09T08:35:50.290Z,99626.50
2024-05-09T08:38:17.725Z,99636.06
2024-05-09T08:40:47.856Z,99633.78
2024-05-09T08:43:19.854Z,99641.66
2024-05-09T08:45:50.257Z,99651.38
2024-05-09T08:48:23.761Z,99631.56
2024-05-09T08:50:53.583Z,99626.75
2024-05-09T08:53:21.392Z,99630.53
2024-05-09T08:55:51.490Z,99638.97
2024-05-09T08:58:22.483Z,99631.28
2024-05-09T09:00:53.026Z,99608.09
2024-05-09T09:03:27.414Z,99637.81
2024-05-09T09:06:01.754Z,99626.34
2024-05-09T09:08:29.677Z,99625.72
2024-05-09T09:10:59.166Z,99620.78
2024-05-09T09:13:26.804Z,99637.06
2024-05-09T09:15:57.986Z,99625.25
2024-05-09T09:18:30.476Z,99619.63
2024-05-09T09:20:58.993Z,99631.38
2024-05-09T09:23:30.479Z,99627.88
2024-05-09T09:25:59.767Z,99619.06
2024-05-09T09:28:27.321Z,99634.59
2024-05-09T09:31:02.051Z,99627.94
2024-05-09T09:33:32.900Z,99636.91
2024-05-09T09:36:07.502Z,99628.84
2024-05-09T09:38:37.312Z,99632.41
2024-05-09T09:41:07.647Z,99626.72
2024-05-09T09:43:39.684Z,99629.78
2024-05-09T09:46:12.259Z,99599.03
2024-05-09T09:48:44.880Z,99622.69
2024-05-09T09:51:15.326Z,99631.44
2024-05-09T09:53:44.698Z,99569.19
2024-05-09T09:56:13.557Z,99632.31
2024-05-09T09:58:44.054Z,99634.16
2024-05-09T10:01:12.140Z,99632.06
2024-05-09T10:03:45.773Z,99631.97
2024-05-09T10:06:17.422Z,99597.59
2024-05-09T10:08:47.807Z,99613.84
2024-05-09T10:11:20.266Z,99614.41
2024-05-09T10:13:49.707Z,99612.47
2024-05-09T10:16:22.423Z,99616.50
2024-05-09T10:18:52.829Z,99600.38
2024-05-09T10:21:21.449Z,99610.75
2024-05-09T10:24:00.820Z,99593.34
2024-05-09T10:26:33.292Z,99612.94
2024-05-09T10:29:10.503Z,99613.19
2024-05-09T10:31:41.175Z,99621.47
2024-05-09T10:34:20.838Z,99576.94
2024-05-09T10:36:53.526Z,99604.47
2024-05-09T10:39:22.147Z,99612.63
2024-05-09T10:41:50.026Z,99605.81
2024-05-09T10:44:18.798Z,99611.97
2024-05-09T10:46:46.507Z,99592.72
2024-05-09T10:49:15.309Z,99622.22
2024-05-09T10:51:47.487Z,99615.50
2024-05-09T10:54:15.051Z,99603.91
2024-05-09T10:56:42.698Z,99601.00
2024-05-09T10:59:12.810Z,99581.91
2024-05-09T11:01:40.974Z,99595.84
2024-05-09T11:04:08.945Z,99598.22
2024-05-09T11:06:38.430Z,99597.94
2024-05-09T11:09:09.083Z,99584.22
2024-05-09T11:11:36.867Z,99575.78
2024-05-09T11:14:12.565Z,99582.16
2024-05-09T11:16:40.300Z,99580.66
2024-05-09T11:19:13.259Z,99588.97
2024-05-09T11:21:40.937Z,99572.25
2024-05-09T11:24:12.391Z,99565.63
2024-05-09T11:26:42.811Z,99555.34
2024-05-09T11:29:10.479Z,99564.97
2024-05-09T11:31:55.832Z,99561.59
2024-05-09T11:34:23.778Z,99540.69
2024-05-09T11:36:51.622Z,99562.97
2024-05-09T11:39:21.977Z,99538.81
2024-05-09T11:41:50.061Z,99553.75
2024-05-09T11:44:17.633Z,99557.19
2024-05-09T11:46:45.229Z,99528.69
2024-05-09T11:49:13.008Z,99552.88
2024-05-09T11:51:40.769Z,99529.19
2024-05-09T11:54:08.173Z,99533.16
2024-05-09T11:56:38.375Z,99539.78
2024-05-09T11:59:05.850Z,99535.63
2024-05-09T12:01:33.495Z,99547.47
2024-05-09T12:04:01.379Z,99547.41
2024-05-09T12:06:29.742Z,99543.69
2024-05-09T12:08:57.309Z,99536.00
2024-05-09T12:11:24.894Z,99516.72
2024-05-09T12:13:55.156Z,99526.00
2024-05-09T12:16:22.812Z,99539.25
2024-05-09T12:18:50.733Z,99521.88
2024-05-09T12:21:18.495Z,99544.59
2024-05-09T12:23:46.026Z,99499.97
2024-05-09T12:26:16.016Z,99529.13
2024-05-09T12:28:43.909Z,99523.91
2024-05-09T12:31:16.559Z,99518.59
2024-05-09T12:33:44.324Z,99525.50
2024-05-09T12:36:11.963Z,99531.47
2024-05-09T12:38:41.170Z,99520.38
2024-05-09T12:41:09.269Z,99511.47
2024-05-09T12:43:37.005Z,99530.69
2024-05-09T12:46:04.842Z,99525.75
2024-05-09T12:48:35.381Z,99526.09
2024-05-09T12:51:02.978Z,99528.81
2024-05-09T12:53:30.367Z,99526.50
2024-05-09T12:56:02.200Z,99522.47
2024-05-09T12:58:31.561Z,99510.09
2024-05-09T13:00:59.214Z,99517.28
2024-05-09T13:03:27.262Z,99498.56
2024-05-09T13:05:57.839Z,99487.72
2024-05-09T13:08:25.567Z,99493.25
2024-05-09T13:10:53.249Z,99489.84
2024-05-09T13:13:21.118Z,99497.13
2024-05-09T13:15:48.960Z,99488.59
2024-05-09T13:18:16.737Z,99483.22
2024-05-09T13:20:44.584Z,99498.78
2024-05-09T13:23:14.985Z,99488.31
2024-05-09T13:25:42.583Z,99481.38
2024-05-09T13:28:10.292Z,99488.41
2024-05-09T13:30:40.890Z,99490.72
2024-05-09T13:33:11.574Z,99489.63
2024-05-09T13:35:41.952Z,99492.06
2024-05-09T13:38:14.038Z,99478.66
2024-05-09T13:40:44.531Z,99470.59
2024-05-09T13:43:12.484Z,99479.34
2024-05-09T13:45:40.200Z,99470.66
2024-05-09T13:48:10.027Z,99479.47
2024-05-09T13:50:39.304Z,99490.44
2024-05-09T13:53:07.958Z,99476.13
2024-05-09T13:55:39.031Z,99464.50
2024-05-09T13:58:09.846Z,99479.44
2024-05-09T14:00:46.651Z,99466.06
2024-05-09T14:03:19.222Z,99476.00
2024-05-09T14:05:50.857Z,99465.53
2024-05-09T14:08:20.315Z,99469.53
2024-05-09T14:10:48.479Z,99464.63
2024-05-09T14:13:18.919Z,99439.78
2024-05-09T14:15:46.877Z,99446.00
2024-05-09T14:18:15.133Z,99468.41
2024-05-09T14:20:43.200Z,99450.66
2024-05-09T14:23:11.428Z,99466.31
2024-05-09T14:25:42.657Z,99465.50
2024-05-09T14:28:12.965Z,99453.47
2024-05-09T14:30:44.406Z,99451.88
2024-05-09T14:33:12.246Z,99453.19
2024-05-09T14:35:40.136Z,99463.31
2024-05-09T14:38:08.365Z,99440.56
2024-05-09T14:40:42.017Z,99441.53
2024-05-09T14:43:13.812Z,99440.06
2024-05-09T14:45:45.422Z,99429.25
2024-05-09T14:48:15.010Z,99435.19
2024-05-09T14:50:43.066Z,99423.44
2024-05-09T14:53:12.683Z,99434.00
2024-05-09T14:55:42.853Z,99431.38
2024-05-09T14:58:12.348Z,99429.66
2024-05-09T15:00:46.294Z,99430.56
2024-05-09T15:03:22.194Z,99427.63
2024-05-09T15:05:51.660Z,99419.97
2024-05-09T15:08:20.523Z,99416.03
2024-05-09T15:10:50.292Z,99421.00
2024-05-09T15:13:18.824Z,99430.78
2024-05-09T15:15:52.756Z,99416.34
2024-05-09T15:18:23.232Z,99402.19
2024-05-09T15:20:50.882Z,99414.44
2024-05-09T15:23:18.596Z,99422.31
2024-05-09T15:25:46.444Z,99413.13
2024-05-09T15:28:14.154Z,99407.34
2024-05-09T15:30:45.469Z,99408.13
2024-05-09T15:33:14.690Z,99405.44
2024-05-09T15:35:46.948Z,99402.56
2024-05-09T15:38:21.057Z,99402.47
2024-05-09T15:40:48.853Z,99392.50
2024-05-09T15:43:17.084Z,99388.28
2024-05-09T15:45:45.116Z,99393.41
2024-05-09T15:48:14.667Z,99392.63
2024-05-09T15:50:45.384Z,99371.19
2024-05-09T15:53:13.986Z,99384.63
2024-05-09T15:55:42.624Z,99371.78
2024-05-09T15:58:10.928Z,99385.72
2024-05-09T16:00:42.213Z,99376.75
2024-05-09T16:03:13.584Z,99370.59
2024-05-09T16:05:48.291Z,99367.50
2024-05-09T16:08:16.768Z,99371.38
2024-05-09T16:10:46.281Z,99364.03
2024-05-09T16:13:15.389Z,99368.59
2024-05-09T16:15:43.975Z,99374.31
2024-05-09T16:18:12.113Z,99361.06
2024-05-09T16:20:41.787Z,99363.88
2024-05-09T16:23:13.896Z,99359.97
2024-05-09T16:25:46.339Z,99364.41
2024-05-09T16:28:13.645Z,99366.03
2024-05-09T16:30:41.329Z,99371.22
2024-05-09T16:33:11.050Z,99360.53
2024-05-09T16:35:39.867Z,99362.38
2024-05-09T16:38:07.926Z,99362.66
2024-05-09T16:40:40.691Z,99355.44
2024-05-09T16:43:10.454Z,99358.75
2024-05-09T16:45:40.331Z,99346.16
2024-05-09T16:48:09.132Z,99355.13
2024-05-09T16:50:37.019Z,99352.19
2024-05-09T16:53:06.001Z,99356.72
2024-05-09T16:55:34.752Z,99344.53
2024-05-09T16:58:08.455Z,99350.94
2024-05-09T17:00:41.483Z,99347.72
2024-05-09T17:03:14.114Z,99352.75
2024-05-09T17:05:43.267Z,99345.28
2024-05-09T17:08:11.662Z,99354.66
2024-05-09T17:10:39.441Z,99352.22
2024-05-09T17:13:10.278Z,99340.03
2024-05-09T17:15:38.156Z,99344.19
2024-05-09T17:18:07.403Z,99335.44
2024-05-09T17:20:37.236Z,99336.91
2024-05-09T17:23:15.486Z,99341.19
2024-05-09T17:25:43.513Z,99337.97
2024-05-09T17:28:14.089Z,99341.97
2024-05-09T17:30:42.902Z,99343.59
2024-05-09T17:33:12.126Z,99331.38
2024-05-09T17:35:40.780Z,99347.44
2024-05-09T17:38:08.984Z,99345.28
2024-05-09T17:40:38.338Z,99344.03
2024-05-09T17:43:09.175Z,99338.66
2024-05-09T17:45:42.228Z,99352.78
2024-05-09T17:48:11.896Z,99348.22
2024-05-09T17:50:41.512Z,99345.25
2024-05-09T17:53:10.847Z,99347.25
2024-05-09T17:55:39.368Z,99352.00
2024-05-09T17:58:07.532Z,99349.72
2024-05-09T18:00:39.566Z,99350.88
2024-05-09T18:03:13.724Z,99346.97
2024-05-09T18:05:43.535Z,99346.44
2024-05-09T18:08:12.393Z,99345.38
2024-05-09T18:10:41.442Z,99348.16
2024-05-09T18:13:09.824Z,99350.81
2024-05-09T18:15:38.416Z,99343.34
2024-05-09T18:18:07.417Z,99351.06
2024-05-09T18:20:43.904Z,99351.75
2024-05-09T18:23:16.054Z,99336.22
2024-05-09T18:25:45.474Z,99323.34
2024-05-09T18:28:13.557Z,99333.25
2024-05-09T18:30:41.451Z,99344.88
2024-05-09T18:33:11.465Z,99339.78
2024-05-09T18:35:43.465Z,99330.44
2024-05-09T18:38:11.136Z,99338.97
2024-05-09T18:40:40.156Z,99332.00
2024-05-09T18:43:09.486Z,99328.22
2024-05-09T18:45:38.619Z,99325.78
2024-05-09T18:48:08.414Z,99326.84
2024-05-09T18:50:39.620Z,99325.50
2024-05-09T18:53:12.814Z,99322.25
2024-05-09T18:55:41.509Z,99319.06
2024-05-09T18:58:09.243Z,99318.75
2024-05-09T19:00:39.938Z,99321.53
2024-05-09T19:03:12.658Z,99318.66
2024-05-09T19:05:42.568Z,99318.91
2024-05-09T19:08:15.222Z,99310.88
2024-05-09T19:10:45.794Z,99306.28
2024-05-09T19:13:14.649Z,99317.22
2024-05-09T19:15:43.469Z,99313.44
2024-05-09T19:18:12.722Z,99309.63
2024-05-09T19:20:40.826Z,99320.78
2024-05-09T19:23:08.434Z,99306.75
2024-05-09T19:25:38.959Z,99312.09
2024-05-09T19:28:07.186Z,99306.47
2024-05-09T19:30:40.179Z,99312.44
2024-05-09T19:33:12.962Z,99310.25
2024-05-09T19:35:57.646Z,99307.84
2024-05-09T19:38:25.050Z,99315.78
2024-05-09T19:40:55.466Z,99309.91
2024-05-09T19:43:23.202Z,99308.44
2024-05-09T19:45:50.820Z,99309.34
2024-05-09T19:48:18.761Z,99312.56
2024-05-09T19:50:46.942Z,99313.72
2024-05-09T19:53:15.316Z,99315.59
2024-05-09T19:55:43.329Z,99309.81
2024-05-09T19:58:13.657Z,99299.25
2024-05-09T20:00:44.724Z,99294.88
2024-05-09T20:03:14.467Z,99296.16
2024-05-09T20:05:42.955Z,99307.28
2024-05-09T20:08:10.601Z,99299.03
2024-05-09T20:10:42.223Z,99301.09
2024-05-09T20:13:13.731Z,99301.09
2024-05-09T20:15:41.377Z,99299.72
2024-05-09T20:18:09.203Z,99302.25
2024-05-09T20:20:40.563Z,99295.59
2024-05-09T20:23:10.656Z,99290.06
2024-05-09T20:25:38.171Z,99286.84
2024-05-09T20:28:06.675Z,99284.91
2024-05-09T20:30:37.306Z,99281.41
2024-05-09T20:33:09.808Z,99288.44
2024-05-09T20:35:37.921Z,99286.38
2024-05-09T20:38:05.928Z,99278.09
2024-05-09T20:40:37.446Z,99276.47
2024-05-09T20:43:10.998Z,99277.53
2024-05-09T20:49:32.148Z,99272.56
2024-05-09T20:51:59.847Z,99275.81
2024-05-09T20:54:27.362Z,99278.78
2024-05-09T20:56:54.869Z,99277.88
2024-05-09T20:59:22.453Z,99276.50
2024-05-09T21:01:50.123Z,99280.84
2024-05-09T21:05:06.189Z,99285.00
2024-05-09T21:07:36.733Z,99273.03
2024-05-09T21:10:12.732Z,99273.94
2024-05-09T21:12:43.343Z,99279.81
2024-05-09T21:15:11.536Z,99273.38
2024-05-09T21:18:32.712Z,99272.91
2024-05-09T21:22:05.734Z,99274.16
2024-05-09T21:24:39.214Z,99271.75
2024-05-09T21:27:06.722Z,99267.94
2024-05-09T21:29:34.305Z,99267.72
2024-05-09T21:32:01.782Z,99273.00
2024-05-09T21:34:30.169Z,99275.28
2024-05-09T21:36:57.848Z,99269.56
2024-05-09T21:39:25.323Z,99272.28
2024-05-09T21:42:05.084Z,99272.75
2024-05-09T21:44:33.230Z,99273.88
2024-05-09T21:47:00.747Z,99270.69
2024-05-09T21:49:28.343Z,99275.94
2024-05-09T21:51:55.920Z,99276.16
2024-05-09T21:54:23.417Z,99273.75
2024-05-09T21:56:50.910Z,99269.03
2024-05-09T21:59:21.108Z,99267.41
2024-05-09T22:01:48.845Z,99272.34
2024-05-09T22:04:16.607Z,99261.69
2024-05-09T22:06:44.274Z,99273.41
2024-05-09T22:09:11.672Z,99269.34
2024-05-09T22:11:39.432Z,99266.94
2024-05-09T22:14:06.963Z,99265.53
2024-05-09T22:16:40.282Z,99260.94
2024-05-09T22:19:07.945Z,99260.72
2024-05-09T22:21:35.575Z,99262.34
2024-05-09T22:24:03.234Z,99256.47
2024-05-09T22:26:30.786Z,99257.16
2024-05-09T22:28:58.211Z,99259.00
2024-05-09T22:31:25.947Z,99269.22
2024-05-09T22:33:56.538Z,99255.78
2024-05-09T22:36:24.795Z,99256.56
2024-05-09T22:42:27.909Z,99255.91
2024-05-09T22:44:55.469Z,99257.53
2024-05-09T22:47:23.136Z,99253.28
2024-05-09T22:49:53.336Z,99262.25
2024-05-09T22:52:20.826Z,99262.81
2024-05-09T22:54:48.435Z,99250.91
2024-05-09T22:57:15.877Z,99257.34
2024-05-09T22:59:43.455Z,99255.72
2024-05-09T23:02:11.393Z,99251.38
2024-05-09T23:04:39.157Z,99253.78
2024-05-09T23:07:09.451Z,99250.00
2024-05-09T23:09:37.139Z,99250.00
2024-05-09T23:12:05.837Z,99255.06
2024-05-09T23:14:33.596Z,99257.59
2024-05-09T23:17:01.068Z,99255.97
2024-05-09T23:19:28.629Z,99256.88
2024-05-09T23:21:58.890Z,99254.59
2024-05-09T23:24:30.187Z,99249.53
2024-05-09T23:26:58.344Z,99254.69
2024-05-09T23:29:28.070Z,99247.22
2024-05-09T23:31:55.555Z,99244.00
2024-05-09T23:34:23.161Z,99249.75
2024-05-09T23:36:50.881Z,99245.41
2024-05-09T23:39:18.980Z,99244.59
2024-05-09T23:41:49.324Z,99245.16
2024-05-09T23:44:16.793Z,99245.97
2024-05-09T23:46:44.395Z,99239.09
2024-05-09T23:49:12.412Z,99240.69
2024-05-09T23:51:40.027Z,99241.63
2024-05-09T23:54:08.722Z,99230.56
2024-05-09T23:56:36.259Z,99238.84
2024-05-09T23:59:06.439Z,99226.31
